Decoded Metar for KCCA ( in _UNIDENTIFIED) (IATA:N/A) | Meteo·Mobile Aviation Weather
aviador You're here:

KCCA Decoded Metar

in _UNIDENTIFIED
Report Time2019-01-17 22:35:00
UTC Time2019-01-17 22:55:59
Flight Rules mvfr MVFR
WindCalm
Visibility9999 m
Phenomena:N/A
Clouds:Broken 015 Hf
Overcast 021 Hf
Expected CloudBase > 800 ft AGL from Temp-Dew spread
Ceiling1,500 ft
Temp10°C (ISA -4)
Dew Point08°C (88% RH)
AAT9.6°C
QNH1019 hPa
Density Alt-16 ft
Elevation515 ft
Report Wrong Elevation
Raw Report
KCCA 172235Z AUTO 00000KT 10SM BKN015 OVC021 10/08 A3008 RMK
AO2=

Extra information for KCCA:More info

Metar Taf Metar & Taf Last 4 Metars F.Rules Stats Wind Profile Meteogram Temp Stats Metar ALERT Operation Metar Decoded Social comments